<?xml version="1.0" encoding="UTF-8" standalone="no" ?>
<gpx xmlns="http://www.topografix.com/GPX/1/1" xmlns:xsi="http://www.w3.org/2001/XMLSchema-instance" xsi:schemaLocation="http://www.topografix.com/GPX/1/1 http://www.topografix.com/GPX/1/1/gpx.xsd" version="1.1" creator="VisuGPX - https://www.visugpx.com">
  <metadata>
    <name>balcons de la Jonte et du Tarn</name>
    <desc><![CDATA[2015-12 - Hameau Cassagnes - balcons de la Jonte et du Tarn

[b]album[/b] : [url]https://goo.gl/photos/PLBp6LqhykvHq9Jy8[/url]
[img]https://3.bp.blogspot.com/-243fPKK1DM8/WNEc7PyO20I/AAAAAAAAQ4g/v7nJz2axCwoyWdJug-knst35T8TVntlsgCLcB/s640/2015-12_balcons-Jonte_Tarn_photos-i.JPG[/img]
[b]Idées de randonnées dans la même région[/b]
Parcours : [url]https://www.visugpx.com/membres/24856/causses/grands-causses/[/url]
Photos : [url]https://jcvertygo.blogspot.com/p/grands-causses.html[/url]]]></desc>
  </metadata>
  <trk>
    <name><![CDATA[balcons de la Jonte et du Tarn_1]]></name>
    <trkseg>
      <trkpt lat="44.20777" lon="3.2412">
        <ele>874</ele>
        <time>2015-12-30T10:13:17Z</time>
      </trkpt>
      <trkpt lat="44.20775" lon="3.24117">
        <ele>874</ele>
        <time>2015-12-30T10:13:22Z</time>
      </trkpt>
      <trkpt lat="44.20774" lon="3.24112">
        <ele>874</ele>
        <time>2015-12-30T10:13:27Z</time>
      </trkpt>
      <trkpt lat="44.2077" lon="3.24109">
        <ele>874</ele>
        <time>2015-12-30T10:13:32Z</time>
      </trkpt>
      <trkpt lat="44.20755" lon="3.24103">
        <ele>874</ele>
        <time>2015-12-30T10:13:37Z</time>
      </trkpt>
      <trkpt lat="44.20761" lon="3.24074">
        <ele>874</ele>
        <time>2015-12-30T10:14:08Z</time>
      </trkpt>
      <trkpt lat="44.20765" lon="3.2403">
        <ele>878</ele>
        <time>2015-12-30T10:14:27Z</time>
      </trkpt>
      <trkpt lat="44.20751" lon="3.23869">
        <ele>878</ele>
        <time>2015-12-30T10:16:28Z</time>
      </trkpt>
      <trkpt lat="44.2075" lon="3.23857">
        <ele>878</ele>
        <time>2015-12-30T10:16:34Z</time>
      </trkpt>
      <trkpt lat="44.2075" lon="3.23852">
        <ele>878</ele>
        <time>2015-12-30T10:16:37Z</time>
      </trkpt>
      <trkpt lat="44.20751" lon="3.23844">
        <ele>878</ele>
        <time>2015-12-30T10:16:42Z</time>
      </trkpt>
      <trkpt lat="44.20749" lon="3.23824">
        <ele>878</ele>
        <time>2015-12-30T10:17:00Z</time>
      </trkpt>
      <trkpt lat="44.20697" lon="3.23821">
        <ele>869</ele>
        <time>2015-12-30T10:17:58Z</time>
      </trkpt>
      <trkpt lat="44.20661" lon="3.23802">
        <ele>869</ele>
        <time>2015-12-30T10:18:42Z</time>
      </trkpt>
      <trkpt lat="44.20624" lon="3.23781">
        <ele>857</ele>
        <time>2015-12-30T10:19:57Z</time>
      </trkpt>
      <trkpt lat="44.20547" lon="3.23749">
        <ele>857</ele>
        <time>2015-12-30T10:21:12Z</time>
      </trkpt>
      <trkpt lat="44.20531" lon="3.23742">
        <ele>851</ele>
        <time>2015-12-30T10:21:34Z</time>
      </trkpt>
      <trkpt lat="44.20472" lon="3.23758">
        <ele>851</ele>
        <time>2015-12-30T10:22:18Z</time>
      </trkpt>
      <trkpt lat="44.20454" lon="3.23781">
        <ele>847</ele>
        <time>2015-12-30T10:22:42Z</time>
      </trkpt>
      <trkpt lat="44.20448" lon="3.23786">
        <ele>847</ele>
        <time>2015-12-30T10:22:50Z</time>
      </trkpt>
      <trkpt lat="44.20446" lon="3.23787">
        <ele>847</ele>
        <time>2015-12-30T10:22:52Z</time>
      </trkpt>
      <trkpt lat="44.20441" lon="3.2379">
        <ele>847</ele>
        <time>2015-12-30T10:22:57Z</time>
      </trkpt>
      <trkpt lat="44.20439" lon="3.23797">
        <ele>839</ele>
        <time>2015-12-30T10:23:03Z</time>
      </trkpt>
      <trkpt lat="44.20439" lon="3.23802">
        <ele>839</ele>
        <time>2015-12-30T10:23:07Z</time>
      </trkpt>
      <trkpt lat="44.2044" lon="3.2381">
        <ele>839</ele>
        <time>2015-12-30T10:23:12Z</time>
      </trkpt>
      <trkpt lat="44.20429" lon="3.23839">
        <ele>839</ele>
        <time>2015-12-30T10:23:48Z</time>
      </trkpt>
      <trkpt lat="44.20426" lon="3.23845">
        <ele>839</ele>
        <time>2015-12-30T10:23:48Z</time>
      </trkpt>
      <trkpt lat="44.20417" lon="3.23861">
        <ele>839</ele>
        <time>2015-12-30T10:24:05Z</time>
      </trkpt>
      <trkpt lat="44.20398" lon="3.23876">
        <ele>835</ele>
        <time>2015-12-30T10:24:30Z</time>
      </trkpt>
      <trkpt lat="44.20348" lon="3.23933">
        <ele>835</ele>
        <time>2015-12-30T10:25:22Z</time>
      </trkpt>
      <trkpt lat="44.20344" lon="3.23937">
        <ele>835</ele>
        <time>2015-12-30T10:25:27Z</time>
      </trkpt>
      <trkpt lat="44.20339" lon="3.2395">
        <ele>835</ele>
        <time>2015-12-30T10:25:44Z</time>
      </trkpt>
      <trkpt lat="44.20335" lon="3.23956">
        <ele>835</ele>
        <time>2015-12-30T10:26:00Z</time>
      </trkpt>
      <trkpt lat="44.20313" lon="3.23959">
        <ele>829</ele>
        <time>2015-12-30T10:26:40Z</time>
      </trkpt>
      <trkpt lat="44.20294" lon="3.23978">
        <ele>829</ele>
        <time>2015-12-30T10:26:52Z</time>
      </trkpt>
      <trkpt lat="44.20293" lon="3.23981">
        <ele>829</ele>
        <time>2015-12-30T10:26:52Z</time>
      </trkpt>
      <trkpt lat="44.20289" lon="3.23997">
        <ele>836</ele>
        <time>2015-12-30T10:26:57Z</time>
      </trkpt>
      <trkpt lat="44.20196" lon="3.24146">
        <ele>820</ele>
        <time>2015-12-30T10:29:35Z</time>
      </trkpt>
      <trkpt lat="44.20188" lon="3.24144">
        <ele>820</ele>
        <time>2015-12-30T10:29:35Z</time>
      </trkpt>
      <trkpt lat="44.20146" lon="3.24171">
        <ele>820</ele>
        <time>2015-12-30T10:30:30Z</time>
      </trkpt>
      <trkpt lat="44.20144" lon="3.2418">
        <ele>820</ele>
        <time>2015-12-30T10:30:31Z</time>
      </trkpt>
      <trkpt lat="44.20124" lon="3.24189">
        <ele>819</ele>
        <time>2015-12-30T10:30:50Z</time>
      </trkpt>
      <trkpt lat="44.20107" lon="3.24195">
        <ele>819</ele>
        <time>2015-12-30T10:31:02Z</time>
      </trkpt>
      <trkpt lat="44.20061" lon="3.24197">
        <ele>819</ele>
        <time>2015-12-30T10:31:57Z</time>
      </trkpt>
      <trkpt lat="44.20058" lon="3.24264">
        <ele>802</ele>
        <time>2015-12-30T10:33:05Z</time>
      </trkpt>
      <trkpt lat="44.20069" lon="3.24262">
        <ele>802</ele>
        <time>2015-12-30T10:35:05Z</time>
      </trkpt>
      <trkpt lat="44.20073" lon="3.24262">
        <ele>802</ele>
        <time>2015-12-30T10:35:07Z</time>
      </trkpt>
      <trkpt lat="44.20082" lon="3.24248">
        <ele>802</ele>
        <time>2015-12-30T10:35:44Z</time>
      </trkpt>
      <trkpt lat="44.19979" lon="3.24214">
        <ele>792</ele>
        <time>2015-12-30T10:38:07Z</time>
      </trkpt>
      <trkpt lat="44.19962" lon="3.24209">
        <ele>792</ele>
        <time>2015-12-30T10:39:12Z</time>
      </trkpt>
      <trkpt lat="44.19938" lon="3.24236">
        <ele>800</ele>
        <time>2015-12-30T10:40:16Z</time>
      </trkpt>
      <trkpt lat="44.19918" lon="3.24274">
        <ele>800</ele>
        <time>2015-12-30T10:40:42Z</time>
      </trkpt>
      <trkpt lat="44.19908" lon="3.24306">
        <ele>785</ele>
        <time>2015-12-30T10:40:59Z</time>
      </trkpt>
      <trkpt lat="44.19868" lon="3.2432">
        <ele>772</ele>
        <time>2015-12-30T10:42:45Z</time>
      </trkpt>
      <trkpt lat="44.19845" lon="3.243">
        <ele>772</ele>
        <time>2015-12-30T10:43:12Z</time>
      </trkpt>
      <trkpt lat="44.19825" lon="3.24231">
        <ele>782</ele>
        <time>2015-12-30T10:44:51Z</time>
      </trkpt>
      <trkpt lat="44.19819" lon="3.24214">
        <ele>782</ele>
        <time>2015-12-30T10:46:03Z</time>
      </trkpt>
      <trkpt lat="44.19817" lon="3.24213">
        <ele>782</ele>
        <time>2015-12-30T10:46:57Z</time>
      </trkpt>
      <trkpt lat="44.19841" lon="3.24137">
        <ele>786</ele>
        <time>2015-12-30T10:49:01Z</time>
      </trkpt>
      <trkpt lat="44.19819" lon="3.24118">
        <ele>802</ele>
        <time>2015-12-30T10:50:40Z</time>
      </trkpt>
      <trkpt lat="44.19811" lon="3.24113">
        <ele>802</ele>
        <time>2015-12-30T10:51:24Z</time>
      </trkpt>
      <trkpt lat="44.19811" lon="3.24113">
        <ele>802</ele>
        <time>2015-12-30T10:51:27Z</time>
      </trkpt>
      <trkpt lat="44.19803" lon="3.24106">
        <ele>802</ele>
        <time>2015-12-30T10:51:47Z</time>
      </trkpt>
      <trkpt lat="44.19801" lon="3.24105">
        <ele>802</ele>
        <time>2015-12-30T10:53:26Z</time>
      </trkpt>
      <trkpt lat="44.19794" lon="3.24104">
        <ele>802</ele>
        <time>2015-12-30T10:54:08Z</time>
      </trkpt>
      <trkpt lat="44.1979" lon="3.24029">
        <ele>776</ele>
        <time>2015-12-30T10:55:47Z</time>
      </trkpt>
      <trkpt lat="44.1979" lon="3.24027">
        <ele>776</ele>
        <time>2015-12-30T10:55:52Z</time>
      </trkpt>
      <trkpt lat="44.19788" lon="3.24017">
        <ele>776</ele>
        <time>2015-12-30T10:56:08Z</time>
      </trkpt>
      <trkpt lat="44.19788" lon="3.24009">
        <ele>776</ele>
        <time>2015-12-30T10:56:08Z</time>
      </trkpt>
      <trkpt lat="44.19788" lon="3.24008">
        <ele>776</ele>
        <time>2015-12-30T10:56:09Z</time>
      </trkpt>
      <trkpt lat="44.19789" lon="3.24">
        <ele>776</ele>
        <time>2015-12-30T10:56:50Z</time>
      </trkpt>
      <trkpt lat="44.19775" lon="3.23946">
        <ele>806</ele>
        <time>2015-12-30T10:59:12Z</time>
      </trkpt>
      <trkpt lat="44.19766" lon="3.23948">
        <ele>806</ele>
        <time>2015-12-30T10:59:48Z</time>
      </trkpt>
      <trkpt lat="44.19759" lon="3.23938">
        <ele>806</ele>
        <time>2015-12-30T10:59:52Z</time>
      </trkpt>
      <trkpt lat="44.19753" lon="3.23952">
        <ele>806</ele>
        <time>2015-12-30T11:00:06Z</time>
      </trkpt>
      <trkpt lat="44.19736" lon="3.23925">
        <ele>806</ele>
        <time>2015-12-30T11:01:19Z</time>
      </trkpt>
      <trkpt lat="44.19717" lon="3.23916">
        <ele>806</ele>
        <time>2015-12-30T11:01:44Z</time>
      </trkpt>
      <trkpt lat="44.1971" lon="3.23917">
        <ele>806</ele>
        <time>2015-12-30T11:01:44Z</time>
      </trkpt>
      <trkpt lat="44.19703" lon="3.23924">
        <ele>797</ele>
        <time>2015-12-30T11:01:57Z</time>
      </trkpt>
      <trkpt lat="44.19682" lon="3.23953">
        <ele>797</ele>
        <time>2015-12-30T11:02:26Z</time>
      </trkpt>
      <trkpt lat="44.19681" lon="3.23955">
        <ele>797</ele>
        <time>2015-12-30T11:02:27Z</time>
      </trkpt>
      <trkpt lat="44.19681" lon="3.2396">
        <ele>759</ele>
        <time>2015-12-30T11:02:32Z</time>
      </trkpt>
      <trkpt lat="44.19655" lon="3.23939">
        <ele>797</ele>
        <time>2015-12-30T11:04:22Z</time>
      </trkpt>
      <trkpt lat="44.19647" lon="3.23933">
        <ele>797</ele>
        <time>2015-12-30T11:05:48Z</time>
      </trkpt>
      <trkpt lat="44.19642" lon="3.2392">
        <ele>797</ele>
        <time>2015-12-30T11:05:48Z</time>
      </trkpt>
      <trkpt lat="44.19572" lon="3.23934">
        <ele>786</ele>
        <time>2015-12-30T11:08:48Z</time>
      </trkpt>
      <trkpt lat="44.19564" lon="3.23936">
        <ele>786</ele>
        <time>2015-12-30T11:09:10Z</time>
      </trkpt>
      <trkpt lat="44.19562" lon="3.23938">
        <ele>786</ele>
        <time>2015-12-30T11:09:12Z</time>
      </trkpt>
      <trkpt lat="44.19556" lon="3.23942">
        <ele>786</ele>
        <time>2015-12-30T11:09:21Z</time>
      </trkpt>
      <trkpt lat="44.19554" lon="3.2394">
        <ele>786</ele>
        <time>2015-12-30T11:09:24Z</time>
      </trkpt>
      <trkpt lat="44.19548" lon="3.23929">
        <ele>786</ele>
        <time>2015-12-30T11:10:10Z</time>
      </trkpt>
      <trkpt lat="44.19507" lon="3.23908">
        <ele>756</ele>
        <time>2015-12-30T11:12:10Z</time>
      </trkpt>
      <trkpt lat="44.19506" lon="3.23914">
        <ele>756</ele>
        <time>2015-12-30T11:13:07Z</time>
      </trkpt>
      <trkpt lat="44.19498" lon="3.23907">
        <ele>756</ele>
        <time>2015-12-30T11:13:15Z</time>
      </trkpt>
      <trkpt lat="44.19496" lon="3.23905">
        <ele>756</ele>
        <time>2015-12-30T11:13:17Z</time>
      </trkpt>
      <trkpt lat="44.19497" lon="3.23907">
        <ele>756</ele>
        <time>2015-12-30T11:13:25Z</time>
      </trkpt>
      <trkpt lat="44.19505" lon="3.23903">
        <ele>756</ele>
        <time>2015-12-30T11:13:35Z</time>
      </trkpt>
      <trkpt lat="44.19469" lon="3.23883">
        <ele>756</ele>
        <time>2015-12-30T11:15:42Z</time>
      </trkpt>
      <trkpt lat="44.19467" lon="3.23881">
        <ele>756</ele>
        <time>2015-12-30T11:15:47Z</time>
      </trkpt>
      <trkpt lat="44.19465" lon="3.23874">
        <ele>801</ele>
        <time>2015-12-30T11:15:57Z</time>
      </trkpt>
      <trkpt lat="44.19466" lon="3.23871">
        <ele>801</ele>
        <time>2015-12-30T11:16:02Z</time>
      </trkpt>
      <trkpt lat="44.19467" lon="3.23863">
        <ele>801</ele>
        <time>2015-12-30T11:16:12Z</time>
      </trkpt>
      <trkpt lat="44.19467" lon="3.23861">
        <ele>801</ele>
        <time>2015-12-30T11:16:17Z</time>
      </trkpt>
      <trkpt lat="44.19462" lon="3.23832">
        <ele>801</ele>
        <time>2015-12-30T11:16:32Z</time>
      </trkpt>
      <trkpt lat="44.19449" lon="3.238">
        <ele>678</ele>
        <time>2015-12-30T11:16:57Z</time>
      </trkpt>
      <trkpt lat="44.19431" lon="3.23794">
        <ele>678</ele>
        <time>2015-12-30T11:17:42Z</time>
      </trkpt>
      <trkpt lat="44.19431" lon="3.23795">
        <ele>678</ele>
        <time>2015-12-30T11:17:50Z</time>
      </trkpt>
      <trkpt lat="44.19439" lon="3.23796">
        <ele>678</ele>
        <time>2015-12-30T11:19:13Z</time>
      </trkpt>
      <trkpt lat="44.19425" lon="3.23788">
        <ele>798</ele>
        <time>2015-12-30T11:19:51Z</time>
      </trkpt>
      <trkpt lat="44.19411" lon="3.23752">
        <ele>798</ele>
        <time>2015-12-30T11:20:15Z</time>
      </trkpt>
      <trkpt lat="44.19411" lon="3.2375">
        <ele>798</ele>
        <time>2015-12-30T11:20:17Z</time>
      </trkpt>
      <trkpt lat="44.1941" lon="3.23746">
        <ele>798</ele>
        <time>2015-12-30T11:20:22Z</time>
      </trkpt>
      <trkpt lat="44.19409" lon="3.23746">
        <ele>798</ele>
        <time>2015-12-30T11:20:27Z</time>
      </trkpt>
      <trkpt lat="44.19407" lon="3.2374">
        <ele>798</ele>
        <time>2015-12-30T11:20:32Z</time>
      </trkpt>
      <trkpt lat="44.19408" lon="3.23737">
        <ele>798</ele>
        <time>2015-12-30T11:20:37Z</time>
      </trkpt>
      <trkpt lat="44.19408" lon="3.23735">
        <ele>798</ele>
        <time>2015-12-30T11:20:42Z</time>
      </trkpt>
      <trkpt lat="44.19381" lon="3.23685">
        <ele>755</ele>
        <time>2015-12-30T11:21:57Z</time>
      </trkpt>
      <trkpt lat="44.19372" lon="3.2368">
        <ele>660</ele>
        <time>2015-12-30T11:22:12Z</time>
      </trkpt>
      <trkpt lat="44.19396" lon="3.2357">
        <ele>770</ele>
        <time>2015-12-30T11:24:14Z</time>
      </trkpt>
      <trkpt lat="44.19367" lon="3.23538">
        <ele>694</ele>
        <time>2015-12-30T11:25:26Z</time>
      </trkpt>
      <trkpt lat="44.19344" lon="3.23525">
        <ele>694</ele>
        <time>2015-12-30T11:26:09Z</time>
      </trkpt>
      <trkpt lat="44.19343" lon="3.23525">
        <ele>694</ele>
        <time>2015-12-30T11:26:19Z</time>
      </trkpt>
      <trkpt lat="44.19344" lon="3.23524">
        <ele>694</ele>
        <time>2015-12-30T11:26:35Z</time>
      </trkpt>
      <trkpt lat="44.19341" lon="3.23508">
        <ele>694</ele>
        <time>2015-12-30T11:27:00Z</time>
      </trkpt>
      <trkpt lat="44.19346" lon="3.23477">
        <ele>694</ele>
        <time>2015-12-30T11:27:33Z</time>
      </trkpt>
      <trkpt lat="44.19352" lon="3.23465">
        <ele>694</ele>
        <time>2015-12-30T11:28:06Z</time>
      </trkpt>
      <trkpt lat="44.19351" lon="3.23465">
        <ele>694</ele>
        <time>2015-12-30T11:28:06Z</time>
      </trkpt>
      <trkpt lat="44.19359" lon="3.23393">
        <ele>687</ele>
        <time>2015-12-30T11:30:00Z</time>
      </trkpt>
      <trkpt lat="44.19369" lon="3.23362">
        <ele>674</ele>
        <time>2015-12-30T11:30:37Z</time>
      </trkpt>
      <trkpt lat="44.19372" lon="3.23361">
        <ele>674</ele>
        <time>2015-12-30T11:30:42Z</time>
      </trkpt>
      <trkpt lat="44.19375" lon="3.23353">
        <ele>786</ele>
        <time>2015-12-30T11:30:58Z</time>
      </trkpt>
      <trkpt lat="44.19376" lon="3.23349">
        <ele>786</ele>
        <time>2015-12-30T11:30:58Z</time>
      </trkpt>
      <trkpt lat="44.19393" lon="3.23329">
        <ele>786</ele>
        <time>2015-12-30T11:32:10Z</time>
      </trkpt>
      <trkpt lat="44.19387" lon="3.23312">
        <ele>786</ele>
        <time>2015-12-30T11:32:38Z</time>
      </trkpt>
      <trkpt lat="44.19379" lon="3.23262">
        <ele>773</ele>
        <time>2015-12-30T11:34:24Z</time>
      </trkpt>
      <trkpt lat="44.19402" lon="3.23286">
        <ele>773</ele>
        <time>2015-12-30T11:36:02Z</time>
      </trkpt>
      <trkpt lat="44.19404" lon="3.23286">
        <ele>773</ele>
        <time>2015-12-30T11:36:12Z</time>
      </trkpt>
      <trkpt lat="44.19411" lon="3.23282">
        <ele>773</ele>
        <time>2015-12-30T11:36:17Z</time>
      </trkpt>
      <trkpt lat="44.19417" lon="3.23277">
        <ele>773</ele>
        <time>2015-12-30T11:36:22Z</time>
      </trkpt>
      <trkpt lat="44.19419" lon="3.23274">
        <ele>773</ele>
        <time>2015-12-30T11:36:27Z</time>
      </trkpt>
      <trkpt lat="44.19421" lon="3.23271">
        <ele>773</ele>
        <time>2015-12-30T11:36:32Z</time>
      </trkpt>
      <trkpt lat="44.19416" lon="3.23259">
        <ele>773</ele>
        <time>2015-12-30T11:37:00Z</time>
      </trkpt>
      <trkpt lat="44.19424" lon="3.23261">
        <ele>773</ele>
        <time>2015-12-30T11:37:12Z</time>
      </trkpt>
      <trkpt lat="44.19427" lon="3.23262">
        <ele>773</ele>
        <time>2015-12-30T11:37:17Z</time>
      </trkpt>
      <trkpt lat="44.19435" lon="3.2326">
        <ele>773</ele>
        <time>2015-12-30T11:37:40Z</time>
      </trkpt>
      <trkpt lat="44.1943" lon="3.23228">
        <ele>773</ele>
        <time>2015-12-30T11:38:12Z</time>
      </trkpt>
      <trkpt lat="44.19413" lon="3.23213">
        <ele>773</ele>
        <time>2015-12-30T11:38:49Z</time>
      </trkpt>
      <trkpt lat="44.19407" lon="3.23209">
        <ele>773</ele>
        <time>2015-12-30T11:38:49Z</time>
      </trkpt>
      <trkpt lat="44.19406" lon="3.23207">
        <ele>759</ele>
        <time>2015-12-30T11:38:58Z</time>
      </trkpt>
      <trkpt lat="44.19406" lon="3.23202">
        <ele>759</ele>
        <time>2015-12-30T11:39:30Z</time>
      </trkpt>
      <trkpt lat="44.19405" lon="3.23203">
        <ele>759</ele>
        <time>2015-12-30T11:39:38Z</time>
      </trkpt>
      <trkpt lat="44.19406" lon="3.23205">
        <ele>759</ele>
        <time>2015-12-30T11:39:58Z</time>
      </trkpt>
      <trkpt lat="44.19422" lon="3.2324">
        <ele>773</ele>
        <time>2015-12-30T11:40:44Z</time>
      </trkpt>
      <trkpt lat="44.19439" lon="3.23274">
        <ele>773</ele>
        <time>2015-12-30T11:41:42Z</time>
      </trkpt>
      <trkpt lat="44.1945" lon="3.23279">
        <ele>773</ele>
        <time>2015-12-30T11:42:16Z</time>
      </trkpt>
      <trkpt lat="44.19448" lon="3.23274">
        <ele>773</ele>
        <time>2015-12-30T11:42:41Z</time>
      </trkpt>
      <trkpt lat="44.19446" lon="3.23267">
        <ele>773</ele>
        <time>2015-12-30T11:42:41Z</time>
      </trkpt>
      <trkpt lat="44.19442" lon="3.23256">
        <ele>773</ele>
        <time>2015-12-30T11:42:49Z</time>
      </trkpt>
      <trkpt lat="44.19438" lon="3.2325">
        <ele>773</ele>
        <time>2015-12-30T11:43:27Z</time>
      </trkpt>
      <trkpt lat="44.19438" lon="3.23242">
        <ele>773</ele>
        <time>2015-12-30T11:43:32Z</time>
      </trkpt>
      <trkpt lat="44.19426" lon="3.23206">
        <ele>759</ele>
        <time>2015-12-30T11:44:26Z</time>
      </trkpt>
      <trkpt lat="44.19423" lon="3.23202">
        <ele>759</ele>
        <time>2015-12-30T11:44:26Z</time>
      </trkpt>
      <trkpt lat="44.19421" lon="3.23203">
        <ele>759</ele>
        <time>2015-12-30T11:47:34Z</time>
      </trkpt>
      <trkpt lat="44.19418" lon="3.23203">
        <ele>759</ele>
        <time>2015-12-30T11:47:50Z</time>
      </trkpt>
      <trkpt lat="44.19417" lon="3.23202">
        <ele>759</ele>
        <time>2015-12-30T11:47:52Z</time>
      </trkpt>
      <trkpt lat="44.19416" lon="3.23193">
        <ele>759</ele>
        <time>2015-12-30T11:48:26Z</time>
      </trkpt>
      <trkpt lat="44.19427" lon="3.23204">
        <ele>759</ele>
        <time>2015-12-30T11:49:14Z</time>
      </trkpt>
      <trkpt lat="44.19432" lon="3.23208">
        <ele>759</ele>
        <time>2015-12-30T11:49:14Z</time>
      </trkpt>
      <trkpt lat="44.19441" lon="3.23229">
        <ele>773</ele>
        <time>2015-12-30T11:49:41Z</time>
      </trkpt>
      <trkpt lat="44.19444" lon="3.23234">
        <ele>773</ele>
        <time>2015-12-30T11:49:43Z</time>
      </trkpt>
      <trkpt lat="44.19451" lon="3.23234">
        <ele>773</ele>
        <time>2015-12-30T11:49:48Z</time>
      </trkpt>
      <trkpt lat="44.19454" lon="3.2324">
        <ele>773</ele>
        <time>2015-12-30T11:50:00Z</time>
      </trkpt>
      <trkpt lat="44.19454" lon="3.23241">
        <ele>773</ele>
        <time>2015-12-30T11:50:16Z</time>
      </trkpt>
      <trkpt lat="44.19465" lon="3.23247">
        <ele>829</ele>
        <time>2015-12-30T11:50:41Z</time>
      </trkpt>
      <trkpt lat="44.19482" lon="3.23228">
        <ele>829</ele>
        <time>2015-12-30T11:50:41Z</time>
      </trkpt>
      <trkpt lat="44.1948" lon="3.23215">
        <ele>829</ele>
        <time>2015-12-30T11:50:48Z</time>
      </trkpt>
      <trkpt lat="44.1948" lon="3.23204">
        <ele>835</ele>
        <time>2015-12-30T11:50:52Z</time>
      </trkpt>
      <trkpt lat="44.19478" lon="3.23198">
        <ele>835</ele>
        <time>2015-12-30T11:50:57Z</time>
      </trkpt>
      <trkpt lat="44.19477" lon="3.23194">
        <ele>835</ele>
        <time>2015-12-30T11:51:02Z</time>
      </trkpt>
      <trkpt lat="44.19475" lon="3.23188">
        <ele>835</ele>
        <time>2015-12-30T11:51:07Z</time>
      </trkpt>
      <trkpt lat="44.19473" lon="3.23183">
        <ele>835</ele>
        <time>2015-12-30T11:51:12Z</time>
      </trkpt>
      <trkpt lat="44.19471" lon="3.2318">
        <ele>835</ele>
        <time>2015-12-30T11:51:17Z</time>
      </trkpt>
      <trkpt lat="44.19457" lon="3.2316">
        <ele>759</ele>
        <time>2015-12-30T11:52:14Z</time>
      </trkpt>
      <trkpt lat="44.19447" lon="3.23145">
        <ele>759</ele>
        <time>2015-12-30T11:53:17Z</time>
      </trkpt>
      <trkpt lat="44.19443" lon="3.23141">
        <ele>759</ele>
        <time>2015-12-30T11:53:27Z</time>
      </trkpt>
      <trkpt lat="44.1942" lon="3.23122">
        <ele>771</ele>
        <time>2015-12-30T11:54:01Z</time>
      </trkpt>
      <trkpt lat="44.1942" lon="3.23122">
        <ele>771</ele>
        <time>2015-12-30T11:54:02Z</time>
      </trkpt>
      <trkpt lat="44.19406" lon="3.23102">
        <ele>771</ele>
        <time>2015-12-30T11:54:47Z</time>
      </trkpt>
      <trkpt lat="44.19403" lon="3.23099">
        <ele>771</ele>
        <time>2015-12-30T11:55:07Z</time>
      </trkpt>
      <trkpt lat="44.19407" lon="3.23089">
        <ele>771</ele>
        <time>2015-12-30T11:55:32Z</time>
      </trkpt>
      <trkpt lat="44.19402" lon="3.23085">
        <ele>771</ele>
        <time>2015-12-30T11:55:52Z</time>
      </trkpt>
      <trkpt lat="44.19397" lon="3.23088">
        <ele>771</ele>
        <time>2015-12-30T11:56:21Z</time>
      </trkpt>
      <trkpt lat="44.19397" lon="3.2309">
        <ele>771</ele>
        <time>2015-12-30T11:56:30Z</time>
      </trkpt>
      <trkpt lat="44.19402" lon="3.23084">
        <ele>771</ele>
        <time>2015-12-30T11:56:32Z</time>
      </trkpt>
      <trkpt lat="44.19405" lon="3.23074">
        <ele>771</ele>
        <time>2015-12-30T11:56:37Z</time>
      </trkpt>
      <trkpt lat="44.19403" lon="3.23078">
        <ele>771</ele>
        <time>2015-12-30T11:56:47Z</time>
      </trkpt>
      <trkpt lat="44.19393" lon="3.2308">
        <ele>771</ele>
        <time>2015-12-30T11:57:27Z</time>
      </trkpt>
      <trkpt lat="44.19379" lon="3.23076">
        <ele>771</ele>
        <time>2015-12-30T11:58:27Z</time>
      </trkpt>
      <trkpt lat="44.1938" lon="3.23078">
        <ele>771</ele>
        <time>2015-12-30T11:58:35Z</time>
      </trkpt>
      <trkpt lat="44.1938" lon="3.23077">
        <ele>771</ele>
        <time>2015-12-30T11:58:57Z</time>
      </trkpt>
      <trkpt lat="44.19389" lon="3.23072">
        <ele>771</ele>
        <time>2015-12-30T11:59:02Z</time>
      </trkpt>
      <trkpt lat="44.19395" lon="3.23061">
        <ele>771</ele>
        <time>2015-12-30T11:59:12Z</time>
      </trkpt>
      <trkpt lat="44.19399" lon="3.23063">
        <ele>771</ele>
        <time>2015-12-30T11:59:17Z</time>
      </trkpt>
      <trkpt lat="44.19418" lon="3.2306">
        <ele>771</ele>
        <time>2015-12-30T11:59:44Z</time>
      </trkpt>
      <trkpt lat="44.19414" lon="3.23054">
        <ele>771</ele>
        <time>2015-12-30T12:00:25Z</time>
      </trkpt>
      <trkpt lat="44.19444" lon="3.23046">
        <ele>771</ele>
        <time>2015-12-30T12:02:00Z</time>
      </trkpt>
      <trkpt lat="44.19447" lon="3.23019">
        <ele>729</ele>
        <time>2015-12-30T12:03:09Z</time>
      </trkpt>
      <trkpt lat="44.19451" lon="3.23012">
        <ele>729</ele>
        <time>2015-12-30T12:03:37Z</time>
      </trkpt>
      <trkpt lat="44.19449" lon="3.23007">
        <ele>729</ele>
        <time>2015-12-30T12:03:57Z</time>
      </trkpt>
      <trkpt lat="44.19457" lon="3.22973">
        <ele>729</ele>
        <time>2015-12-30T12:05:53Z</time>
      </trkpt>
      <trkpt lat="44.19455" lon="3.22963">
        <ele>729</ele>
        <time>2015-12-30T12:06:26Z</time>
      </trkpt>
      <trkpt lat="44.19462" lon="3.22952">
        <ele>766</ele>
        <time>2015-12-30T12:06:51Z</time>
      </trkpt>
      <trkpt lat="44.19458" lon="3.22933">
        <ele>690</ele>
        <time>2015-12-30T12:07:40Z</time>
      </trkpt>
      <trkpt lat="44.19448" lon="3.22927">
        <ele>690</ele>
        <time>2015-12-30T12:07:42Z</time>
      </trkpt>
      <trkpt lat="44.19444" lon="3.22919">
        <ele>690</ele>
        <time>2015-12-30T12:08:03Z</time>
      </trkpt>
      <trkpt lat="44.19442" lon="3.22926">
        <ele>690</ele>
        <time>2015-12-30T12:08:42Z</time>
      </trkpt>
      <trkpt lat="44.19436" lon="3.22917">
        <ele>690</ele>
        <time>2015-12-30T12:08:42Z</time>
      </trkpt>
      <trkpt lat="44.1943" lon="3.22913">
        <ele>690</ele>
        <time>2015-12-30T12:09:12Z</time>
      </trkpt>
      <trkpt lat="44.19419" lon="3.22917">
        <ele>690</ele>
        <time>2015-12-30T12:10:07Z</time>
      </trkpt>
      <trkpt lat="44.19416" lon="3.22917">
        <ele>690</ele>
        <time>2015-12-30T12:10:07Z</time>
      </trkpt>
      <trkpt lat="44.19416" lon="3.22932">
        <ele>690</ele>
        <time>2015-12-30T12:11:09Z</time>
      </trkpt>
      <trkpt lat="44.19426" lon="3.22933">
        <ele>690</ele>
        <time>2015-12-30T12:11:42Z</time>
      </trkpt>
      <trkpt lat="44.19437" lon="3.22941">
        <ele>690</ele>
        <time>2015-12-30T12:15:07Z</time>
      </trkpt>
      <trkpt lat="44.19442" lon="3.22929">
        <ele>690</ele>
        <time>2015-12-30T12:15:48Z</time>
      </trkpt>
      <trkpt lat="44.19448" lon="3.22915">
        <ele>690</ele>
        <time>2015-12-30T12:16:57Z</time>
      </trkpt>
      <trkpt lat="44.19437" lon="3.22933">
        <ele>690</ele>
        <time>2015-12-30T12:19:09Z</time>
      </trkpt>
      <trkpt lat="44.19437" lon="3.22933">
        <ele>690</ele>
        <time>2015-12-30T12:19:09Z</time>
      </trkpt>
      <trkpt lat="44.19429" lon="3.22945">
        <ele>690</ele>
        <time>2015-12-30T12:19:54Z</time>
      </trkpt>
      <trkpt lat="44.1942" lon="3.2295">
        <ele>690</ele>
        <time>2015-12-30T12:19:57Z</time>
      </trkpt>
      <trkpt lat="44.19429" lon="3.22941">
        <ele>690</ele>
        <time>2015-12-30T12:20:48Z</time>
      </trkpt>
      <trkpt lat="44.19445" lon="3.2295">
        <ele>690</ele>
        <time>2015-12-30T12:22:50Z</time>
      </trkpt>
      <trkpt lat="44.19442" lon="3.22967">
        <ele>729</ele>
        <time>2015-12-30T12:22:50Z</time>
      </trkpt>
      <trkpt lat="44.19465" lon="3.2294">
        <ele>766</ele>
        <time>2015-12-30T12:23:57Z</time>
      </trkpt>
      <trkpt lat="44.1947" lon="3.22935">
        <ele>766</ele>
        <time>2015-12-30T12:24:02Z</time>
      </trkpt>
      <trkpt lat="44.19479" lon="3.22927">
        <ele>766</ele>
        <time>2015-12-30T12:24:10Z</time>
      </trkpt>
      <trkpt lat="44.1948" lon="3.22927">
        <ele>766</ele>
        <time>2015-12-30T12:24:12Z</time>
      </trkpt>
      <trkpt lat="44.19485" lon="3.2292">
        <ele>766</ele>
        <time>2015-12-30T12:24:17Z</time>
      </trkpt>
      <trkpt lat="44.19486" lon="3.22917">
        <ele>766</ele>
        <time>2015-12-30T12:24:22Z</time>
      </trkpt>
      <trkpt lat="44.19488" lon="3.22913">
        <ele>766</ele>
        <time>2015-12-30T12:24:57Z</time>
      </trkpt>
      <trkpt lat="44.1949" lon="3.2291">
        <ele>766</ele>
        <time>2015-12-30T12:25:02Z</time>
      </trkpt>
      <trkpt lat="44.19496" lon="3.22912">
        <ele>766</ele>
        <time>2015-12-30T12:25:30Z</time>
      </trkpt>
      <trkpt lat="44.19497" lon="3.22914">
        <ele>766</ele>
        <time>2015-12-30T12:25:30Z</time>
      </trkpt>
      <trkpt lat="44.19588" lon="3.22871">
        <ele>750</ele>
        <time>2015-12-30T12:28:02Z</time>
      </trkpt>
      <trkpt lat="44.19592" lon="3.2285">
        <ele>750</ele>
        <time>2015-12-30T12:28:20Z</time>
      </trkpt>
      <trkpt lat="44.19632" lon="3.22845">
        <ele>760</ele>
        <time>2015-12-30T12:30:21Z</time>
      </trkpt>
      <trkpt lat="44.19644" lon="3.22844">
        <ele>760</ele>
        <time>2015-12-30T12:30:54Z</time>
      </trkpt>
      <trkpt lat="44.19654" lon="3.2284">
        <ele>760</ele>
        <time>2015-12-30T12:31:34Z</time>
      </trkpt>
      <trkpt lat="44.1965" lon="3.22849">
        <ele>760</ele>
        <time>2015-12-30T12:32:59Z</time>
      </trkpt>
      <trkpt lat="44.19646" lon="3.22847">
        <ele>760</ele>
        <time>2015-12-30T12:33:02Z</time>
      </trkpt>
      <trkpt lat="44.19683" lon="3.22849">
        <ele>760</ele>
        <time>2015-12-30T12:33:54Z</time>
      </trkpt>
      <trkpt lat="44.19684" lon="3.22849">
        <ele>760</ele>
        <time>2015-12-30T12:33:54Z</time>
      </trkpt>
      <trkpt lat="44.19695" lon="3.22843">
        <ele>760</ele>
        <time>2015-12-30T12:34:37Z</time>
      </trkpt>
      <trkpt lat="44.19731" lon="3.22849">
        <ele>777</ele>
        <time>2015-12-30T12:35:12Z</time>
      </trkpt>
      <trkpt lat="44.19744" lon="3.22845">
        <ele>777</ele>
        <time>2015-12-30T12:36:16Z</time>
      </trkpt>
      <trkpt lat="44.19736" lon="3.22844">
        <ele>777</ele>
        <time>2015-12-30T12:36:16Z</time>
      </trkpt>
      <trkpt lat="44.1973" lon="3.22845">
        <ele>777</ele>
        <time>2015-12-30T12:36:27Z</time>
      </trkpt>
      <trkpt lat="44.19748" lon="3.22846">
        <ele>777</ele>
        <time>2015-12-30T12:37:07Z</time>
      </trkpt>
      <trkpt lat="44.19756" lon="3.22842">
        <ele>777</ele>
        <time>2015-12-30T12:37:15Z</time>
      </trkpt>
      <trkpt lat="44.19756" lon="3.22842">
        <ele>777</ele>
        <time>2015-12-30T12:37:20Z</time>
      </trkpt>
      <trkpt lat="44.19761" lon="3.22841">
        <ele>777</ele>
        <time>2015-12-30T12:37:23Z</time>
      </trkpt>
      <trkpt lat="44.19764" lon="3.22839">
        <ele>777</ele>
        <time>2015-12-30T12:37:36Z</time>
      </trkpt>
      <trkpt lat="44.19774" lon="3.22826">
        <ele>777</ele>
        <time>2015-12-30T12:38:00Z</time>
      </trkpt>
      <trkpt lat="44.19775" lon="3.22772">
        <ele>742</ele>
        <time>2015-12-30T12:38:33Z</time>
      </trkpt>
      <trkpt lat="44.1979" lon="3.22756">
        <ele>742</ele>
        <time>2015-12-30T12:39:23Z</time>
      </trkpt>
      <trkpt lat="44.19792" lon="3.22747">
        <ele>742</ele>
        <time>2015-12-30T12:40:07Z</time>
      </trkpt>
      <trkpt lat="44.19793" lon="3.2272">
        <ele>791</ele>
        <time>2015-12-30T12:40:48Z</time>
      </trkpt>
      <trkpt lat="44.19791" lon="3.22716">
        <ele>742</ele>
        <time>2015-12-30T12:40:48Z</time>
      </trkpt>
      <trkpt lat="44.19789" lon="3.22713">
        <ele>742</ele>
        <time>2015-12-30T12:41:00Z</time>
      </trkpt>
      <trkpt lat="44.19792" lon="3.22706">
        <ele>784</ele>
        <time>2015-12-30T12:41:22Z</time>
      </trkpt>
      <trkpt lat="44.19777" lon="3.2268">
        <ele>734</ele>
        <time>2015-12-30T12:41:49Z</time>
      </trkpt>
      <trkpt lat="44.19752" lon="3.22638">
        <ele>734</ele>
        <time>2015-12-30T12:42:46Z</time>
      </trkpt>
      <trkpt lat="44.19743" lon="3.22629">
        <ele>734</ele>
        <time>2015-12-30T12:43:17Z</time>
      </trkpt>
      <trkpt lat="44.19679" lon="3.22574">
        <ele>707</ele>
        <time>2015-12-30T12:45:44Z</time>
      </trkpt>
      <trkpt lat="44.19677" lon="3.22573">
        <ele>707</ele>
        <time>2015-12-30T12:45:47Z</time>
      </trkpt>
      <trkpt lat="44.19661" lon="3.22567">
        <ele>707</ele>
        <time>2015-12-30T12:46:05Z</time>
      </trkpt>
      <trkpt lat="44.19659" lon="3.22565">
        <ele>707</ele>
        <time>2015-12-30T12:46:06Z</time>
      </trkpt>
      <trkpt lat="44.19651" lon="3.22532">
        <ele>698</ele>
        <time>2015-12-30T12:46:57Z</time>
      </trkpt>
      <trkpt lat="44.19735" lon="3.22526">
        <ele>733</ele>
        <time>2015-12-30T12:49:48Z</time>
      </trkpt>
      <trkpt lat="44.19728" lon="3.22531">
        <ele>733</ele>
        <time>2015-12-30T12:50:14Z</time>
      </trkpt>
      <trkpt lat="44.19761" lon="3.22535">
        <ele>733</ele>
        <time>2015-12-30T12:50:47Z</time>
      </trkpt>
      <trkpt lat="44.19779" lon="3.22531">
        <ele>733</ele>
        <time>2015-12-30T12:51:08Z</time>
      </trkpt>
      <trkpt lat="44.19781" lon="3.22529">
        <ele>733</ele>
        <time>2015-12-30T12:51:12Z</time>
      </trkpt>
      <trkpt lat="44.19834" lon="3.22424">
        <ele>764</ele>
        <time>2015-12-30T12:53:41Z</time>
      </trkpt>
      <trkpt lat="44.19835" lon="3.22418">
        <ele>764</ele>
        <time>2015-12-30T12:53:42Z</time>
      </trkpt>
      <trkpt lat="44.19836" lon="3.22407">
        <ele>764</ele>
        <time>2015-12-30T12:53:52Z</time>
      </trkpt>
      <trkpt lat="44.19835" lon="3.22403">
        <ele>764</ele>
        <time>2015-12-30T12:53:57Z</time>
      </trkpt>
      <trkpt lat="44.19834" lon="3.22402">
        <ele>764</ele>
        <time>2015-12-30T12:54:02Z</time>
      </trkpt>
      <trkpt lat="44.19841" lon="3.22406">
        <ele>764</ele>
        <time>2015-12-30T12:54:42Z</time>
      </trkpt>
      <trkpt lat="44.19842" lon="3.22411">
        <ele>764</ele>
        <time>2015-12-30T12:54:47Z</time>
      </trkpt>
      <trkpt lat="44.19841" lon="3.22416">
        <ele>764</ele>
        <time>2015-12-30T12:54:52Z</time>
      </trkpt>
      <trkpt lat="44.19842" lon="3.22416">
        <ele>764</ele>
        <time>2015-12-30T12:54:57Z</time>
      </trkpt>
      <trkpt lat="44.19856" lon="3.22424">
        <ele>764</ele>
        <time>2015-12-30T12:55:37Z</time>
      </trkpt>
      <trkpt lat="44.19859" lon="3.22423">
        <ele>764</ele>
        <time>2015-12-30T12:55:42Z</time>
      </trkpt>
      <trkpt lat="44.19862" lon="3.22423">
        <ele>764</ele>
        <time>2015-12-30T12:55:47Z</time>
      </trkpt>
      <trkpt lat="44.19865" lon="3.22424">
        <ele>764</ele>
        <time>2015-12-30T12:55:52Z</time>
      </trkpt>
      <trkpt lat="44.19865" lon="3.22424">
        <ele>764</ele>
        <time>2015-12-30T12:55:57Z</time>
      </trkpt>
      <trkpt lat="44.1987" lon="3.22431">
        <ele>764</ele>
        <time>2015-12-30T12:56:07Z</time>
      </trkpt>
      <trkpt lat="44.1987" lon="3.22433">
        <ele>764</ele>
        <time>2015-12-30T12:56:12Z</time>
      </trkpt>
      <trkpt lat="44.1987" lon="3.22436">
        <ele>764</ele>
        <time>2015-12-30T12:56:17Z</time>
      </trkpt>
      <trkpt lat="44.19873" lon="3.2244">
        <ele>764</ele>
        <time>2015-12-30T12:56:22Z</time>
      </trkpt>
      <trkpt lat="44.19876" lon="3.22444">
        <ele>748</ele>
        <time>2015-12-30T12:56:27Z</time>
      </trkpt>
      <trkpt lat="44.19881" lon="3.22446">
        <ele>748</ele>
        <time>2015-12-30T12:56:32Z</time>
      </trkpt>
      <trkpt lat="44.19882" lon="3.22451">
        <ele>748</ele>
        <time>2015-12-30T12:56:37Z</time>
      </trkpt>
      <trkpt lat="44.19884" lon="3.22455">
        <ele>748</ele>
        <time>2015-12-30T12:56:42Z</time>
      </trkpt>
      <trkpt lat="44.19889" lon="3.22461">
        <ele>804</ele>
        <time>2015-12-30T12:56:47Z</time>
      </trkpt>
      <trkpt lat="44.19895" lon="3.22462">
        <ele>804</ele>
        <time>2015-12-30T12:56:52Z</time>
      </trkpt>
      <trkpt lat="44.199" lon="3.22467">
        <ele>804</ele>
        <time>2015-12-30T12:56:57Z</time>
      </trkpt>
      <trkpt lat="44.19904" lon="3.22471">
        <ele>804</ele>
        <time>2015-12-30T12:57:02Z</time>
      </trkpt>
      <trkpt lat="44.19906" lon="3.22474">
        <ele>804</ele>
        <time>2015-12-30T12:57:07Z</time>
      </trkpt>
      <trkpt lat="44.19909" lon="3.22477">
        <ele>804</ele>
        <time>2015-12-30T12:57:12Z</time>
      </trkpt>
      <trkpt lat="44.19913" lon="3.22479">
        <ele>804</ele>
        <time>2015-12-30T12:57:17Z</time>
      </trkpt>
      <trkpt lat="44.19916" lon="3.2248">
        <ele>804</ele>
        <time>2015-12-30T12:57:22Z</time>
      </trkpt>
      <trkpt lat="44.19919" lon="3.22483">
        <ele>804</ele>
        <time>2015-12-30T12:57:27Z</time>
      </trkpt>
      <trkpt lat="44.19922" lon="3.22484">
        <ele>804</ele>
        <time>2015-12-30T12:57:32Z</time>
      </trkpt>
      <trkpt lat="44.19927" lon="3.22483">
        <ele>804</ele>
        <time>2015-12-30T12:57:37Z</time>
      </trkpt>
      <trkpt lat="44.1993" lon="3.2248">
        <ele>804</ele>
        <time>2015-12-30T12:57:42Z</time>
      </trkpt>
      <trkpt lat="44.19933" lon="3.2248">
        <ele>804</ele>
        <time>2015-12-30T12:57:47Z</time>
      </trkpt>
      <trkpt lat="44.19942" lon="3.22475">
        <ele>804</ele>
        <time>2015-12-30T12:57:57Z</time>
      </trkpt>
      <trkpt lat="44.19946" lon="3.22482">
        <ele>804</ele>
        <time>2015-12-30T12:58:02Z</time>
      </trkpt>
      <trkpt lat="44.19952" lon="3.22489">
        <ele>804</ele>
        <time>2015-12-30T12:58:12Z</time>
      </trkpt>
      <trkpt lat="44.19957" lon="3.225">
        <ele>804</ele>
        <time>2015-12-30T12:58:19Z</time>
      </trkpt>
      <trkpt lat="44.19961" lon="3.22511">
        <ele>736</ele>
        <time>2015-12-30T12:58:27Z</time>
      </trkpt>
      <trkpt lat="44.19971" lon="3.22516">
        <ele>736</ele>
        <time>2015-12-30T12:58:50Z</time>
      </trkpt>
      <trkpt lat="44.19974" lon="3.22525">
        <ele>736</ele>
        <time>2015-12-30T12:58:50Z</time>
      </trkpt>
      <trkpt lat="44.19981" lon="3.22527">
        <ele>736</ele>
        <time>2015-12-30T12:58:57Z</time>
      </trkpt>
      <trkpt lat="44.19984" lon="3.22543">
        <ele>756</ele>
        <time>2015-12-30T12:59:46Z</time>
      </trkpt>
      <trkpt lat="44.2" lon="3.22562">
        <ele>756</ele>
        <time>2015-12-30T13:00:28Z</time>
      </trkpt>
      <trkpt lat="44.20006" lon="3.22565">
        <ele>756</ele>
        <time>2015-12-30T13:00:41Z</time>
      </trkpt>
      <trkpt lat="44.20005" lon="3.22564">
        <ele>756</ele>
        <time>2015-12-30T13:00:42Z</time>
      </trkpt>
      <trkpt lat="44.20004" lon="3.22561">
        <ele>756</ele>
        <time>2015-12-30T13:00:58Z</time>
      </trkpt>
      <trkpt lat="44.20013" lon="3.22555">
        <ele>756</ele>
        <time>2015-12-30T13:01:57Z</time>
      </trkpt>
      <trkpt lat="44.20012" lon="3.22556">
        <ele>756</ele>
        <time>2015-12-30T13:02:02Z</time>
      </trkpt>
      <trkpt lat="44.20019" lon="3.22559">
        <ele>756</ele>
        <time>2015-12-30T13:04:55Z</time>
      </trkpt>
      <trkpt lat="44.20017" lon="3.22559">
        <ele>756</ele>
        <time>2015-12-30T13:04:57Z</time>
      </trkpt>
      <trkpt lat="44.20016" lon="3.22559">
        <ele>756</ele>
        <time>2015-12-30T13:05:43Z</time>
      </trkpt>
      <trkpt lat="44.20006" lon="3.22561">
        <ele>756</ele>
        <time>2015-12-30T13:06:04Z</time>
      </trkpt>
      <trkpt lat="44.20006" lon="3.2256">
        <ele>756</ele>
        <time>2015-12-30T13:06:07Z</time>
      </trkpt>
      <trkpt lat="44.20004" lon="3.22562">
        <ele>756</ele>
        <time>2015-12-30T13:06:39Z</time>
      </trkpt>
      <trkpt lat="44.20004" lon="3.22566">
        <ele>756</ele>
        <time>2015-12-30T13:07:00Z</time>
      </trkpt>
      <trkpt lat="44.20012" lon="3.22578">
        <ele>756</ele>
        <time>2015-12-30T13:07:17Z</time>
      </trkpt>
      <trkpt lat="44.2001" lon="3.22595">
        <ele>756</ele>
        <time>2015-12-30T13:07:34Z</time>
      </trkpt>
      <trkpt lat="44.20015" lon="3.22607">
        <ele>756</ele>
        <time>2015-12-30T13:07:34Z</time>
      </trkpt>
      <trkpt lat="44.2002" lon="3.22614">
        <ele>756</ele>
        <time>2015-12-30T13:07:50Z</time>
      </trkpt>
      <trkpt lat="44.20027" lon="3.2262">
        <ele>756</ele>
        <time>2015-12-30T13:07:50Z</time>
      </trkpt>
      <trkpt lat="44.20028" lon="3.22625">
        <ele>756</ele>
        <time>2015-12-30T13:07:59Z</time>
      </trkpt>
      <trkpt lat="44.20029" lon="3.22646">
        <ele>783</ele>
        <time>2015-12-30T13:08:24Z</time>
      </trkpt>
      <trkpt lat="44.20037" lon="3.22655">
        <ele>783</ele>
        <time>2015-12-30T13:08:24Z</time>
      </trkpt>
      <trkpt lat="44.20068" lon="3.22648">
        <ele>757</ele>
        <time>2015-12-30T13:08:52Z</time>
      </trkpt>
      <trkpt lat="44.20084" lon="3.22651">
        <ele>757</ele>
        <time>2015-12-30T13:09:10Z</time>
      </trkpt>
      <trkpt lat="44.20084" lon="3.22653">
        <ele>757</ele>
        <time>2015-12-30T13:09:13Z</time>
      </trkpt>
      <trkpt lat="44.20095" lon="3.2269">
        <ele>757</ele>
        <time>2015-12-30T13:09:32Z</time>
      </trkpt>
      <trkpt lat="44.201" lon="3.22696">
        <ele>757</ele>
        <time>2015-12-30T13:09:37Z</time>
      </trkpt>
      <trkpt lat="44.20105" lon="3.22705">
        <ele>757</ele>
        <time>2015-12-30T13:09:42Z</time>
      </trkpt>
      <trkpt lat="44.20108" lon="3.2271">
        <ele>788</ele>
        <time>2015-12-30T13:09:47Z</time>
      </trkpt>
      <trkpt lat="44.20112" lon="3.22713">
        <ele>788</ele>
        <time>2015-12-30T13:09:52Z</time>
      </trkpt>
      <trkpt lat="44.2012" lon="3.22717">
        <ele>788</ele>
        <time>2015-12-30T13:10:02Z</time>
      </trkpt>
      <trkpt lat="44.20121" lon="3.22717">
        <ele>788</ele>
        <time>2015-12-30T13:10:09Z</time>
      </trkpt>
      <trkpt lat="44.20121" lon="3.22717">
        <ele>788</ele>
        <time>2015-12-30T13:10:17Z</time>
      </trkpt>
      <trkpt lat="44.20125" lon="3.2272">
        <ele>775</ele>
        <time>2015-12-30T13:11:07Z</time>
      </trkpt>
      <trkpt lat="44.20129" lon="3.22724">
        <ele>775</ele>
        <time>2015-12-30T13:11:12Z</time>
      </trkpt>
      <trkpt lat="44.20137" lon="3.22731">
        <ele>775</ele>
        <time>2015-12-30T13:11:22Z</time>
      </trkpt>
      <trkpt lat="44.20145" lon="3.22733">
        <ele>775</ele>
        <time>2015-12-30T13:11:27Z</time>
      </trkpt>
      <trkpt lat="44.2015" lon="3.22736">
        <ele>775</ele>
        <time>2015-12-30T13:11:32Z</time>
      </trkpt>
      <trkpt lat="44.20154" lon="3.22736">
        <ele>775</ele>
        <time>2015-12-30T13:11:37Z</time>
      </trkpt>
      <trkpt lat="44.2016" lon="3.22734">
        <ele>775</ele>
        <time>2015-12-30T13:11:42Z</time>
      </trkpt>
      <trkpt lat="44.20166" lon="3.22734">
        <ele>775</ele>
        <time>2015-12-30T13:11:47Z</time>
      </trkpt>
      <trkpt lat="44.20172" lon="3.22733">
        <ele>775</ele>
        <time>2015-12-30T13:11:52Z</time>
      </trkpt>
      <trkpt lat="44.20178" lon="3.2273">
        <ele>775</ele>
        <time>2015-12-30T13:11:57Z</time>
      </trkpt>
      <trkpt lat="44.20184" lon="3.22726">
        <ele>775</ele>
        <time>2015-12-30T13:12:02Z</time>
      </trkpt>
      <trkpt lat="44.20197" lon="3.2273">
        <ele>775</ele>
        <time>2015-12-30T13:12:17Z</time>
      </trkpt>
      <trkpt lat="44.20212" lon="3.22733">
        <ele>763</ele>
        <time>2015-12-30T13:12:38Z</time>
      </trkpt>
      <trkpt lat="44.20225" lon="3.22752">
        <ele>763</ele>
        <time>2015-12-30T13:13:00Z</time>
      </trkpt>
      <trkpt lat="44.20226" lon="3.22753">
        <ele>763</ele>
        <time>2015-12-30T13:13:02Z</time>
      </trkpt>
      <trkpt lat="44.20228" lon="3.22753">
        <ele>763</ele>
        <time>2015-12-30T13:13:07Z</time>
      </trkpt>
      <trkpt lat="44.20251" lon="3.22772">
        <ele>763</ele>
        <time>2015-12-30T13:13:20Z</time>
      </trkpt>
      <trkpt lat="44.20253" lon="3.22776">
        <ele>763</ele>
        <time>2015-12-30T13:13:22Z</time>
      </trkpt>
      <trkpt lat="44.20273" lon="3.22784">
        <ele>763</ele>
        <time>2015-12-30T13:13:51Z</time>
      </trkpt>
      <trkpt lat="44.20292" lon="3.22783">
        <ele>757</ele>
        <time>2015-12-30T13:13:52Z</time>
      </trkpt>
      <trkpt lat="44.20339" lon="3.22806">
        <ele>791</ele>
        <time>2015-12-30T13:14:44Z</time>
      </trkpt>
      <trkpt lat="44.20341" lon="3.22805">
        <ele>791</ele>
        <time>2015-12-30T13:14:47Z</time>
      </trkpt>
      <trkpt lat="44.20348" lon="3.22802">
        <ele>791</ele>
        <time>2015-12-30T13:14:52Z</time>
      </trkpt>
      <trkpt lat="44.20357" lon="3.22807">
        <ele>791</ele>
        <time>2015-12-30T13:15:05Z</time>
      </trkpt>
      <trkpt lat="44.20361" lon="3.22812">
        <ele>791</ele>
        <time>2015-12-30T13:15:05Z</time>
      </trkpt>
      <trkpt lat="44.20364" lon="3.22814">
        <ele>791</ele>
        <time>2015-12-30T13:15:08Z</time>
      </trkpt>
      <trkpt lat="44.20377" lon="3.2283">
        <ele>777</ele>
        <time>2015-12-30T13:15:33Z</time>
      </trkpt>
      <trkpt lat="44.20383" lon="3.22838">
        <ele>777</ele>
        <time>2015-12-30T13:15:34Z</time>
      </trkpt>
      <trkpt lat="44.20409" lon="3.2286">
        <ele>777</ele>
        <time>2015-12-30T13:16:09Z</time>
      </trkpt>
      <trkpt lat="44.20414" lon="3.22864">
        <ele>777</ele>
        <time>2015-12-30T13:16:13Z</time>
      </trkpt>
      <trkpt lat="44.20429" lon="3.22874">
        <ele>777</ele>
        <time>2015-12-30T13:16:34Z</time>
      </trkpt>
      <trkpt lat="44.2044" lon="3.22878">
        <ele>808</ele>
        <time>2015-12-30T13:16:34Z</time>
      </trkpt>
      <trkpt lat="44.20448" lon="3.22879">
        <ele>808</ele>
        <time>2015-12-30T13:16:42Z</time>
      </trkpt>
      <trkpt lat="44.20469" lon="3.22882">
        <ele>771</ele>
        <time>2015-12-30T13:17:02Z</time>
      </trkpt>
      <trkpt lat="44.20486" lon="3.2291">
        <ele>771</ele>
        <time>2015-12-30T13:17:27Z</time>
      </trkpt>
      <trkpt lat="44.20489" lon="3.22915">
        <ele>771</ele>
        <time>2015-12-30T13:17:27Z</time>
      </trkpt>
      <trkpt lat="44.20503" lon="3.2293">
        <ele>771</ele>
        <time>2015-12-30T13:17:53Z</time>
      </trkpt>
      <trkpt lat="44.20461" lon="3.23004">
        <ele>773</ele>
        <time>2015-12-30T13:18:40Z</time>
      </trkpt>
      <trkpt lat="44.2046" lon="3.23006">
        <ele>773</ele>
        <time>2015-12-30T13:18:48Z</time>
      </trkpt>
      <trkpt lat="44.20458" lon="3.23022">
        <ele>773</ele>
        <time>2015-12-30T13:18:48Z</time>
      </trkpt>
      <trkpt lat="44.20474" lon="3.23044">
        <ele>803</ele>
        <time>2015-12-30T13:19:01Z</time>
      </trkpt>
      <trkpt lat="44.20475" lon="3.23045">
        <ele>803</ele>
        <time>2015-12-30T13:19:02Z</time>
      </trkpt>
      <trkpt lat="44.20476" lon="3.23051">
        <ele>803</ele>
        <time>2015-12-30T13:19:07Z</time>
      </trkpt>
      <trkpt lat="44.20479" lon="3.23057">
        <ele>803</ele>
        <time>2015-12-30T13:19:12Z</time>
      </trkpt>
      <trkpt lat="44.20481" lon="3.23065">
        <ele>803</ele>
        <time>2015-12-30T13:19:17Z</time>
      </trkpt>
      <trkpt lat="44.20481" lon="3.23072">
        <ele>803</ele>
        <time>2015-12-30T13:19:22Z</time>
      </trkpt>
      <trkpt lat="44.20482" lon="3.23079">
        <ele>803</ele>
        <time>2015-12-30T13:19:27Z</time>
      </trkpt>
      <trkpt lat="44.20482" lon="3.23088">
        <ele>803</ele>
        <time>2015-12-30T13:19:32Z</time>
      </trkpt>
      <trkpt lat="44.20481" lon="3.23093">
        <ele>803</ele>
        <time>2015-12-30T13:19:37Z</time>
      </trkpt>
      <trkpt lat="44.20478" lon="3.23092">
        <ele>803</ele>
        <time>2015-12-30T13:19:42Z</time>
      </trkpt>
      <trkpt lat="44.20477" lon="3.23096">
        <ele>803</ele>
        <time>2015-12-30T13:19:47Z</time>
      </trkpt>
      <trkpt lat="44.20478" lon="3.23104">
        <ele>803</ele>
        <time>2015-12-30T13:19:53Z</time>
      </trkpt>
      <trkpt lat="44.20541" lon="3.23171">
        <ele>841</ele>
        <time>2015-12-30T13:20:59Z</time>
      </trkpt>
      <trkpt lat="44.20547" lon="3.23176">
        <ele>792</ele>
        <time>2015-12-30T13:21:06Z</time>
      </trkpt>
      <trkpt lat="44.20557" lon="3.23182">
        <ele>792</ele>
        <time>2015-12-30T13:21:17Z</time>
      </trkpt>
      <trkpt lat="44.20568" lon="3.23194">
        <ele>792</ele>
        <time>2015-12-30T13:21:33Z</time>
      </trkpt>
      <trkpt lat="44.2058" lon="3.23219">
        <ele>826</ele>
        <time>2015-12-30T13:22:04Z</time>
      </trkpt>
      <trkpt lat="44.20586" lon="3.23223">
        <ele>826</ele>
        <time>2015-12-30T13:22:04Z</time>
      </trkpt>
      <trkpt lat="44.20595" lon="3.2323">
        <ele>826</ele>
        <time>2015-12-30T13:22:16Z</time>
      </trkpt>
      <trkpt lat="44.20595" lon="3.2323">
        <ele>826</ele>
        <time>2015-12-30T13:22:17Z</time>
      </trkpt>
      <trkpt lat="44.20625" lon="3.23246">
        <ele>826</ele>
        <time>2015-12-30T13:22:42Z</time>
      </trkpt>
      <trkpt lat="44.20632" lon="3.23268">
        <ele>803</ele>
        <time>2015-12-30T13:22:57Z</time>
      </trkpt>
      <trkpt lat="44.20634" lon="3.23315">
        <ele>834</ele>
        <time>2015-12-30T13:23:39Z</time>
      </trkpt>
      <trkpt lat="44.2063" lon="3.23322">
        <ele>834</ele>
        <time>2015-12-30T13:23:42Z</time>
      </trkpt>
      <trkpt lat="44.20634" lon="3.23335">
        <ele>834</ele>
        <time>2015-12-30T13:23:50Z</time>
      </trkpt>
      <trkpt lat="44.20635" lon="3.23335">
        <ele>834</ele>
        <time>2015-12-30T13:23:52Z</time>
      </trkpt>
      <trkpt lat="44.2064" lon="3.23334">
        <ele>834</ele>
        <time>2015-12-30T13:24:13Z</time>
      </trkpt>
      <trkpt lat="44.20643" lon="3.23333">
        <ele>834</ele>
        <time>2015-12-30T13:24:13Z</time>
      </trkpt>
      <trkpt lat="44.20693" lon="3.23339">
        <ele>834</ele>
        <time>2015-12-30T13:25:12Z</time>
      </trkpt>
      <trkpt lat="44.20699" lon="3.2334">
        <ele>834</ele>
        <time>2015-12-30T13:25:17Z</time>
      </trkpt>
      <trkpt lat="44.20702" lon="3.23342">
        <ele>834</ele>
        <time>2015-12-30T13:25:22Z</time>
      </trkpt>
      <trkpt lat="44.20709" lon="3.23345">
        <ele>827</ele>
        <time>2015-12-30T13:25:27Z</time>
      </trkpt>
      <trkpt lat="44.20717" lon="3.23345">
        <ele>827</ele>
        <time>2015-12-30T13:25:32Z</time>
      </trkpt>
      <trkpt lat="44.20731" lon="3.23348">
        <ele>827</ele>
        <time>2015-12-30T13:25:46Z</time>
      </trkpt>
      <trkpt lat="44.20731" lon="3.2335">
        <ele>827</ele>
        <time>2015-12-30T13:25:47Z</time>
      </trkpt>
      <trkpt lat="44.20739" lon="3.2336">
        <ele>827</ele>
        <time>2015-12-30T13:25:55Z</time>
      </trkpt>
      <trkpt lat="44.20749" lon="3.2338">
        <ele>856</ele>
        <time>2015-12-30T13:26:20Z</time>
      </trkpt>
      <trkpt lat="44.20756" lon="3.23388">
        <ele>856</ele>
        <time>2015-12-30T13:26:20Z</time>
      </trkpt>
      <trkpt lat="44.20775" lon="3.23403">
        <ele>856</ele>
        <time>2015-12-30T13:26:37Z</time>
      </trkpt>
      <trkpt lat="44.20783" lon="3.23415">
        <ele>856</ele>
        <time>2015-12-30T13:26:54Z</time>
      </trkpt>
      <trkpt lat="44.20785" lon="3.23423">
        <ele>856</ele>
        <time>2015-12-30T13:27:02Z</time>
      </trkpt>
      <trkpt lat="44.2082" lon="3.23467">
        <ele>867</ele>
        <time>2015-12-30T13:27:54Z</time>
      </trkpt>
      <trkpt lat="44.20829" lon="3.23483">
        <ele>867</ele>
        <time>2015-12-30T13:28:04Z</time>
      </trkpt>
      <trkpt lat="44.20827" lon="3.23486">
        <ele>867</ele>
        <time>2015-12-30T13:28:07Z</time>
      </trkpt>
      <trkpt lat="44.2081" lon="3.23605">
        <ele>871</ele>
        <time>2015-12-30T13:30:48Z</time>
      </trkpt>
      <trkpt lat="44.20808" lon="3.23681">
        <ele>872</ele>
        <time>2015-12-30T13:30:48Z</time>
      </trkpt>
      <trkpt lat="44.20802" lon="3.23692">
        <ele>872</ele>
        <time>2015-12-30T13:30:57Z</time>
      </trkpt>
      <trkpt lat="44.20776" lon="3.2373">
        <ele>872</ele>
        <time>2015-12-30T13:31:27Z</time>
      </trkpt>
      <trkpt lat="44.2076" lon="3.23742">
        <ele>872</ele>
        <time>2015-12-30T13:31:57Z</time>
      </trkpt>
      <trkpt lat="44.20762" lon="3.23764">
        <ele>872</ele>
        <time>2015-12-30T13:32:22Z</time>
      </trkpt>
      <trkpt lat="44.20765" lon="3.23772">
        <ele>872</ele>
        <time>2015-12-30T13:32:22Z</time>
      </trkpt>
      <trkpt lat="44.20766" lon="3.23773">
        <ele>872</ele>
        <time>2015-12-30T13:32:23Z</time>
      </trkpt>
      <trkpt lat="44.20764" lon="3.23796">
        <ele>878</ele>
        <time>2015-12-30T13:32:32Z</time>
      </trkpt>
      <trkpt lat="44.20766" lon="3.23805">
        <ele>878</ele>
        <time>2015-12-30T13:32:37Z</time>
      </trkpt>
      <trkpt lat="44.20766" lon="3.23811">
        <ele>878</ele>
        <time>2015-12-30T13:32:42Z</time>
      </trkpt>
      <trkpt lat="44.20769" lon="3.23826">
        <ele>878</ele>
        <time>2015-12-30T13:32:52Z</time>
      </trkpt>
      <trkpt lat="44.20764" lon="3.23839">
        <ele>878</ele>
        <time>2015-12-30T13:32:57Z</time>
      </trkpt>
      <trkpt lat="44.20761" lon="3.23856">
        <ele>878</ele>
        <time>2015-12-30T13:33:07Z</time>
      </trkpt>
      <trkpt lat="44.20762" lon="3.23862">
        <ele>878</ele>
        <time>2015-12-30T13:33:12Z</time>
      </trkpt>
      <trkpt lat="44.20766" lon="3.23878">
        <ele>879</ele>
        <time>2015-12-30T13:33:22Z</time>
      </trkpt>
      <trkpt lat="44.20766" lon="3.23887">
        <ele>879</ele>
        <time>2015-12-30T13:33:27Z</time>
      </trkpt>
      <trkpt lat="44.20767" lon="3.23906">
        <ele>879</ele>
        <time>2015-12-30T13:33:37Z</time>
      </trkpt>
      <trkpt lat="44.20768" lon="3.23915">
        <ele>879</ele>
        <time>2015-12-30T13:33:42Z</time>
      </trkpt>
      <trkpt lat="44.20771" lon="3.23925">
        <ele>879</ele>
        <time>2015-12-30T13:33:52Z</time>
      </trkpt>
      <trkpt lat="44.20772" lon="3.23931">
        <ele>879</ele>
        <time>2015-12-30T13:33:57Z</time>
      </trkpt>
      <trkpt lat="44.20773" lon="3.23939">
        <ele>879</ele>
        <time>2015-12-30T13:34:07Z</time>
      </trkpt>
      <trkpt lat="44.20774" lon="3.23946">
        <ele>879</ele>
        <time>2015-12-30T13:34:14Z</time>
      </trkpt>
      <trkpt lat="44.20771" lon="3.2397">
        <ele>878</ele>
        <time>2015-12-30T13:34:27Z</time>
      </trkpt>
      <trkpt lat="44.2077" lon="3.23978">
        <ele>878</ele>
        <time>2015-12-30T13:34:32Z</time>
      </trkpt>
      <trkpt lat="44.20769" lon="3.23991">
        <ele>878</ele>
        <time>2015-12-30T13:34:47Z</time>
      </trkpt>
      <trkpt lat="44.20764" lon="3.24014">
        <ele>878</ele>
        <time>2015-12-30T13:35:00Z</time>
      </trkpt>
      <trkpt lat="44.20762" lon="3.24127">
        <ele>870</ele>
        <time>2015-12-30T13:36:31Z</time>
      </trkpt>
      <trkpt lat="44.2076" lon="3.24133">
        <ele>870</ele>
        <time>2015-12-30T13:36:31Z</time>
      </trkpt>
      <trkpt lat="44.20758" lon="3.24135">
        <ele>870</ele>
        <time>2015-12-30T13:36:33Z</time>
      </trkpt>
      <trkpt lat="44.20757" lon="3.24137">
        <ele>870</ele>
        <time>2015-12-30T13:37:07Z</time>
      </trkpt>
      <trkpt lat="44.20754" lon="3.24117">
        <ele>874</ele>
        <time>2015-12-31T13:08:25Z</time>
      </trkpt>
    </trkseg>
  </trk>
</gpx>